sensor_id;sensor_type;location;lat;lon;timestamp;temperature;humidity
7461;DHT22;6757;52.258;12.840;2023-11-22T00:01:05;-1.50;99.90
7461;DHT22;6757;52.258;12.840;2023-11-22T00:03:33;-1.40;99.90
7461;DHT22;6757;52.258;12.840;2023-11-22T00:06:00;-1.50;99.90
7461;DHT22;6757;52.258;12.840;2023-11-22T00:08:28;-1.50;99.90
7461;DHT22;6757;52.258;12.840;2023-11-22T00:10:55;-1.50;99.90
7461;DHT22;6757;52.258;12.840;2023-11-22T00:13:24;-1.50;99.90
7461;DHT22;6757;52.258;12.840;2023-11-22T00:15:51;-1.50;99.90
7461;DHT22;6757;52.258;12.840;2023-11-22T00:18:18;-1.50;99.90
7461;DHT22;6757;52.258;12.840;2023-11-22T00:20:45;-1.40;99.90
7461;DHT22;6757;52.258;12.840;2023-11-22T00:23:14;-1.50;99.90
7461;DHT22;6757;52.258;12.840;2023-11-22T00:25:41;-1.60;99.90
7461;DHT22;6757;52.258;12.840;2023-11-22T00:28:09;-1.50;99.90
7461;DHT22;6757;52.258;12.840;2023-11-22T00:30:38;-1.50;99.90
7461;DHT22;6757;52.258;12.840;2023-11-22T00:33:05;-1.50;99.90
7461;DHT22;6757;52.258;12.840;2023-11-22T00:35:33;-1.50;99.90
7461;DHT22;6757;52.258;12.840;2023-11-22T00:38:00;-1.50;99.90
7461;DHT22;6757;52.258;12.840;2023-11-22T00:40:28;-1.60;99.90
7461;DHT22;6757;52.258;12.840;2023-11-22T00:42:55;-1.40;99.90
7461;DHT22;6757;52.258;12.840;2023-11-22T00:45:23;-1.40;99.90
7461;DHT22;6757;52.258;12.840;2023-11-22T00:47:51;-1.40;99.90
7461;DHT22;6757;52.258;12.840;2023-11-22T00:50:19;-1.30;99.90
7461;DHT22;6757;52.258;12.840;2023-11-22T00:52:46;-1.40;99.90
7461;DHT22;6757;52.258;12.840;2023-11-22T00:55:13;-1.50;99.90
7461;DHT22;6757;52.258;12.840;2023-11-22T00:57:41;-1.40;99.90
7461;DHT22;6757;52.258;12.840;2023-11-22T01:00:09;-1.40;99.90
7461;DHT22;6757;52.258;12.840;2023-11-22T01:02:40;-1.40;99.90
7461;DHT22;6757;52.258;12.840;2023-11-22T01:05:09;-1.30;99.90
7461;DHT22;6757;52.258;12.840;2023-11-22T01:07:38;-1.40;99.90
7461;DHT22;6757;52.258;12.840;2023-11-22T01:10:06;-1.40;99.90
7461;DHT22;6757;52.258;12.840;2023-11-22T01:12:33;-1.50;99.90
7461;DHT22;6757;52.258;12.840;2023-11-22T01:15:01;-1.40;99.90
7461;DHT22;6757;52.258;12.840;2023-11-22T01:17:28;-1.50;99.90
7461;DHT22;6757;52.258;12.840;2023-11-22T01:19:56;-1.30;99.90
7461;DHT22;6757;52.258;12.840;2023-11-22T01:22:26;-1.40;99.90
7461;DHT22;6757;52.258;12.840;2023-11-22T01:24:54;-1.50;99.90
7461;DHT22;6757;52.258;12.840;2023-11-22T01:27:21;-1.50;99.90
7461;DHT22;6757;52.258;12.840;2023-11-22T01:29:49;-1.50;99.90
7461;DHT22;6757;52.258;12.840;2023-11-22T01:32:19;-1.50;99.90
7461;DHT22;6757;52.258;12.840;2023-11-22T01:34:46;-1.60;99.90
7461;DHT22;6757;52.258;12.840;2023-11-22T01:37:15;-1.60;99.90
7461;DHT22;6757;52.258;12.840;2023-11-22T01:39:44;-1.60;99.90
7461;DHT22;6757;52.258;12.840;2023-11-22T01:42:11;-1.70;99.90
7461;DHT22;6757;52.258;12.840;2023-11-22T01:44:38;-1.70;99.90
7461;DHT22;6757;52.258;12.840;2023-11-22T01:47:05;-1.70;99.90
7461;DHT22;6757;52.258;12.840;2023-11-22T01:49:34;-1.70;99.90
7461;DHT22;6757;52.258;12.840;2023-11-22T01:52:03;-1.70;99.90
7461;DHT22;6757;52.258;12.840;2023-11-22T01:54:31;-1.80;99.90
7461;DHT22;6757;52.258;12.840;2023-11-22T01:57:01;-1.80;99.90
7461;DHT22;6757;52.258;12.840;2023-11-22T01:59:29;-1.80;99.90
7461;DHT22;6757;52.258;12.840;2023-11-22T02:01:58;-1.80;99.90
7461;DHT22;6757;52.258;12.840;2023-11-22T02:04:24;-1.80;99.90
7461;DHT22;6757;52.258;12.840;2023-11-22T02:06:52;-1.90;99.90
7461;DHT22;6757;52.258;12.840;2023-11-22T02:09:19;-1.90;99.90
7461;DHT22;6757;52.258;12.840;2023-11-22T02:11:47;-2.00;99.90
7461;DHT22;6757;52.258;12.840;2023-11-22T02:14:16;-1.90;99.90
7461;DHT22;6757;52.258;12.840;2023-11-22T02:16:43;-1.90;99.90
7461;DHT22;6757;52.258;12.840;2023-11-22T02:19:14;-1.90;99.90
7461;DHT22;6757;52.258;12.840;2023-11-22T02:21:44;-1.90;99.90
7461;DHT22;6757;52.258;12.840;2023-11-22T02:24:12;-1.80;99.90
7461;DHT22;6757;52.258;12.840;2023-11-22T02:26:44;-2.00;99.90
7461;DHT22;6757;52.258;12.840;2023-11-22T02:29:11;-2.00;99.90
7461;DHT22;6757;52.258;12.840;2023-11-22T02:31:41;-2.10;99.90
7461;DHT22;6757;52.258;12.840;2023-11-22T02:34:08;-2.00;99.90
7461;DHT22;6757;52.258;12.840;2023-11-22T02:36:35;-2.00;99.90
7461;DHT22;6757;52.258;12.840;2023-11-22T02:39:02;-2.10;99.90
7461;DHT22;6757;52.258;12.840;2023-11-22T02:41:31;-2.10;99.90
7461;DHT22;6757;52.258;12.840;2023-11-22T02:43:58;-2.10;99.90
7461;DHT22;6757;52.258;12.840;2023-11-22T02:46:25;-2.00;99.90
7461;DHT22;6757;52.258;12.840;2023-11-22T02:48:52;-2.10;99.90
7461;DHT22;6757;52.258;12.840;2023-11-22T02:51:20;-2.10;99.90
7461;DHT22;6757;52.258;12.840;2023-11-22T02:53:48;-2.10;99.90
7461;DHT22;6757;52.258;12.840;2023-11-22T02:56:15;-2.20;99.90
7461;DHT22;6757;52.258;12.840;2023-11-22T02:58:45;-2.20;99.90
7461;DHT22;6757;52.258;12.840;2023-11-22T03:01:12;-2.20;99.90
7461;DHT22;6757;52.258;12.840;2023-11-22T03:03:40;-2.20;99.90
7461;DHT22;6757;52.258;12.840;2023-11-22T03:06:07;-2.20;99.90
7461;DHT22;6757;52.258;12.840;2023-11-22T03:08:43;-2.20;99.90
7461;DHT22;6757;52.258;12.840;2023-11-22T03:11:10;-2.20;99.90
7461;DHT22;6757;52.258;12.840;2023-11-22T03:13:38;-2.20;99.90
7461;DHT22;6757;52.258;12.840;2023-11-22T03:16:06;-2.20;99.90
7461;DHT22;6757;52.258;12.840;2023-11-22T03:18:34;-2.20;99.90
7461;DHT22;6757;52.258;12.840;2023-11-22T03:21:01;-2.30;99.90
7461;DHT22;6757;52.258;12.840;2023-11-22T03:23:28;-2.30;99.90
7461;DHT22;6757;52.258;12.840;2023-11-22T03:25:56;-2.30;99.90
7461;DHT22;6757;52.258;12.840;2023-11-22T03:28:24;-2.30;99.90
7461;DHT22;6757;52.258;12.840;2023-11-22T03:30:55;-2.20;99.90
7461;DHT22;6757;52.258;12.840;2023-11-22T03:33:23;-2.30;99.90
7461;DHT22;6757;52.258;12.840;2023-11-22T03:35:51;-2.30;99.90
7461;DHT22;6757;52.258;12.840;2023-11-22T03:38:19;-2.40;99.90
7461;DHT22;6757;52.258;12.840;2023-11-22T03:40:46;-2.40;99.90
7461;DHT22;6757;52.258;12.840;2023-11-22T03:43:13;-2.40;99.90
7461;DHT22;6757;52.258;12.840;2023-11-22T03:45:41;-2.40;99.90
7461;DHT22;6757;52.258;12.840;2023-11-22T03:48:09;-2.40;99.90
7461;DHT22;6757;52.258;12.840;2023-11-22T03:50:37;-2.40;99.90
7461;DHT22;6757;52.258;12.840;2023-11-22T03:53:04;-2.50;99.90
7461;DHT22;6757;52.258;12.840;2023-11-22T03:55:31;-2.50;99.90
7461;DHT22;6757;52.258;12.840;2023-11-22T03:57:58;-2.60;99.90
7461;DHT22;6757;52.258;12.840;2023-11-22T04:00:26;-2.50;99.90
7461;DHT22;6757;52.258;12.840;2023-11-22T04:02:54;-2.40;99.90
7461;DHT22;6757;52.258;12.840;2023-11-22T04:05:22;-2.50;99.90
7461;DHT22;6757;52.258;12.840;2023-11-22T04:07:52;-2.60;99.90
7461;DHT22;6757;52.258;12.840;2023-11-22T04:10:22;-2.50;99.90
7461;DHT22;6757;52.258;12.840;2023-11-22T04:12:50;-2.60;99.90
7461;DHT22;6757;52.258;12.840;2023-11-22T04:15:17;-2.60;99.90
7461;DHT22;6757;52.258;12.840;2023-11-22T04:17:45;-2.60;99.90
7461;DHT22;6757;52.258;12.840;2023-11-22T04:20:12;-2.60;99.90
7461;DHT22;6757;52.258;12.840;2023-11-22T04:22:40;-2.60;99.90
7461;DHT22;6757;52.258;12.840;2023-11-22T04:25:12;-2.70;99.90
7461;DHT22;6757;52.258;12.840;2023-11-22T04:27:39;-2.70;99.90
7461;DHT22;6757;52.258;12.840;2023-11-22T04:30:07;-2.70;99.90
7461;DHT22;6757;52.258;12.840;2023-11-22T04:32:38;-2.70;99.90
7461;DHT22;6757;52.258;12.840;2023-11-22T04:35:06;-2.70;99.90
7461;DHT22;6757;52.258;12.840;2023-11-22T04:37:35;-2.80;99.90
7461;DHT22;6757;52.258;12.840;2023-11-22T04:40:03;-2.80;99.90
7461;DHT22;6757;52.258;12.840;2023-11-22T04:42:34;-2.80;99.90
7461;DHT22;6757;52.258;12.840;2023-11-22T04:45:02;-2.70;99.90
7461;DHT22;6757;52.258;12.840;2023-11-22T04:47:29;-2.60;99.90
7461;DHT22;6757;52.258;12.840;2023-11-22T04:49:56;-2.60;99.90
7461;DHT22;6757;52.258;12.840;2023-11-22T04:52:23;-2.70;99.90
7461;DHT22;6757;52.258;12.840;2023-11-22T04:54:50;-2.70;99.90
7461;DHT22;6757;52.258;12.840;2023-11-22T04:57:17;-2.90;99.90
7461;DHT22;6757;52.258;12.840;2023-11-22T04:59:46;-2.80;99.90
7461;DHT22;6757;52.258;12.840;2023-11-22T05:02:14;-2.80;99.90
7461;DHT22;6757;52.258;12.840;2023-11-22T05:04:42;-2.90;99.90
7461;DHT22;6757;52.258;12.840;2023-11-22T05:07:14;-2.90;99.90
7461;DHT22;6757;52.258;12.840;2023-11-22T05:09:44;-2.90;99.90
7461;DHT22;6757;52.258;12.840;2023-11-22T05:12:11;-3.00;99.90
7461;DHT22;6757;52.258;12.840;2023-11-22T05:14:38;-3.00;99.90
7461;DHT22;6757;52.258;12.840;2023-11-22T05:17:06;-3.00;99.90
7461;DHT22;6757;52.258;12.840;2023-11-22T05:19:33;-3.00;99.90
7461;DHT22;6757;52.258;12.840;2023-11-22T05:22:01;-3.00;99.90
7461;DHT22;6757;52.258;12.840;2023-11-22T05:24:28;-3.00;99.90
7461;DHT22;6757;52.258;12.840;2023-11-22T05:26:55;-3.00;99.90
7461;DHT22;6757;52.258;12.840;2023-11-22T05:29:22;-3.00;99.90
7461;DHT22;6757;52.258;12.840;2023-11-22T05:31:49;-3.00;99.90
7461;DHT22;6757;52.258;12.840;2023-11-22T05:34:19;-3.00;99.90
7461;DHT22;6757;52.258;12.840;2023-11-22T05:36:46;-3.00;99.90
7461;DHT22;6757;52.258;12.840;2023-11-22T05:39:15;-3.00;99.90
7461;DHT22;6757;52.258;12.840;2023-11-22T05:41:43;-3.00;99.90
7461;DHT22;6757;52.258;12.840;2023-11-22T05:44:10;-3.00;99.90
7461;DHT22;6757;52.258;12.840;2023-11-22T05:46:36;-3.00;99.90
7461;DHT22;6757;52.258;12.840;2023-11-22T05:49:04;-3.00;99.90
7461;DHT22;6757;52.258;12.840;2023-11-22T05:51:33;-3.00;99.90
7461;DHT22;6757;52.258;12.840;2023-11-22T05:54:00;-3.00;99.90
7461;DHT22;6757;52.258;12.840;2023-11-22T05:56:27;-3.00;99.90
7461;DHT22;6757;52.258;12.840;2023-11-22T05:58:54;-3.00;99.90
7461;DHT22;6757;52.258;12.840;2023-11-22T06:01:21;-3.00;99.90
7461;DHT22;6757;52.258;12.840;2023-11-22T06:03:48;-3.00;99.90
7461;DHT22;6757;52.258;12.840;2023-11-22T06:06:15;-3.00;99.90
7461;DHT22;6757;52.258;12.840;2023-11-22T06:08:45;-3.00;99.90
7461;DHT22;6757;52.258;12.840;2023-11-22T06:11:12;-2.70;99.90
7461;DHT22;6757;52.258;12.840;2023-11-22T06:13:40;-2.60;99.90
7461;DHT22;6757;52.258;12.840;2023-11-22T06:16:08;-2.60;99.90
7461;DHT22;6757;52.258;12.840;2023-11-22T06:18:34;-2.50;99.90
7461;DHT22;6757;52.258;12.840;2023-11-22T06:21:05;-2.40;99.90
7461;DHT22;6757;52.258;12.840;2023-11-22T06:23:33;-2.30;99.90
7461;DHT22;6757;52.258;12.840;2023-11-22T06:26:02;-2.40;99.90
7461;DHT22;6757;52.258;12.840;2023-11-22T06:28:31;-2.50;99.90
7461;DHT22;6757;52.258;12.840;2023-11-22T06:30:58;-2.50;99.90
7461;DHT22;6757;52.258;12.840;2023-11-22T06:33:25;-2.50;99.90
7461;DHT22;6757;52.258;12.840;2023-11-22T06:35:52;-2.60;99.90
7461;DHT22;6757;52.258;12.840;2023-11-22T06:38:19;-2.60;99.90
7461;DHT22;6757;52.258;12.840;2023-11-22T06:40:46;-2.80;99.90
7461;DHT22;6757;52.258;12.840;2023-11-22T06:43:14;-3.10;99.90
7461;DHT22;6757;52.258;12.840;2023-11-22T06:45:42;-3.00;99.90
7461;DHT22;6757;52.258;12.840;2023-11-22T06:48:10;-3.00;99.90
7461;DHT22;6757;52.258;12.840;2023-11-22T06:50:37;-3.10;99.90
7461;DHT22;6757;52.258;12.840;2023-11-22T06:53:03;-3.20;99.90
7461;DHT22;6757;52.258;12.840;2023-11-22T06:55:31;-3.20;99.90
7461;DHT22;6757;52.258;12.840;2023-11-22T06:57:59;-3.30;99.90
7461;DHT22;6757;52.258;12.840;2023-11-22T07:00:27;-3.30;99.90
7461;DHT22;6757;52.258;12.840;2023-11-22T07:02:54;-3.30;99.90
7461;DHT22;6757;52.258;12.840;2023-11-22T07:05:22;-3.60;99.90
7461;DHT22;6757;52.258;12.840;2023-11-22T07:07:49;-3.40;99.90
7461;DHT22;6757;52.258;12.840;2023-11-22T07:10:15;-3.60;99.90
7461;DHT22;6757;52.258;12.840;2023-11-22T07:12:46;-3.40;99.90
7461;DHT22;6757;52.258;12.840;2023-11-22T07:15:13;-3.50;99.90
7461;DHT22;6757;52.258;12.840;2023-11-22T07:17:41;-3.40;99.90
7461;DHT22;6757;52.258;12.840;2023-11-22T07:20:10;-3.50;99.90
7461;DHT22;6757;52.258;12.840;2023-11-22T07:22:41;-3.50;99.90
7461;DHT22;6757;52.258;12.840;2023-11-22T07:25:09;-3.60;99.90
7461;DHT22;6757;52.258;12.840;2023-11-22T07:27:44;-3.60;99.90
7461;DHT22;6757;52.258;12.840;2023-11-22T07:30:13;-3.60;99.90
7461;DHT22;6757;52.258;12.840;2023-11-22T07:32:42;-3.60;99.90
7461;DHT22;6757;52.258;12.840;2023-11-22T07:35:09;-3.60;99.90
7461;DHT22;6757;52.258;12.840;2023-11-22T07:37:37;-3.60;99.90
7461;DHT22;6757;52.258;12.840;2023-11-22T07:40:07;-3.60;99.90
7461;DHT22;6757;52.258;12.840;2023-11-22T07:42:35;-3.50;99.90
7461;DHT22;6757;52.258;12.840;2023-11-22T07:45:03;-3.60;99.90
7461;DHT22;6757;52.258;12.840;2023-11-22T07:47:31;-3.50;99.90
7461;DHT22;6757;52.258;12.840;2023-11-22T07:50:01;-3.50;99.90
7461;DHT22;6757;52.258;12.840;2023-11-22T07:52:29;-3.50;99.90
7461;DHT22;6757;52.258;12.840;2023-11-22T07:54:56;-3.40;99.90
7461;DHT22;6757;52.258;12.840;2023-11-22T07:57:23;-3.40;99.90
7461;DHT22;6757;52.258;12.840;2023-11-22T07:59:50;-3.30;99.90
7461;DHT22;6757;52.258;12.840;2023-11-22T08:02:20;-3.30;99.90
7461;DHT22;6757;52.258;12.840;2023-11-22T08:04:48;-3.30;99.90
7461;DHT22;6757;52.258;12.840;2023-11-22T08:07:19;-3.20;99.90
7461;DHT22;6757;52.258;12.840;2023-11-22T08:09:48;-3.10;99.90
7461;DHT22;6757;52.258;12.840;2023-11-22T08:12:16;-3.00;99.90
7461;DHT22;6757;52.258;12.840;2023-11-22T08:14:44;-3.10;99.90
7461;DHT22;6757;52.258;12.840;2023-11-22T08:17:11;-2.90;99.90
7461;DHT22;6757;52.258;12.840;2023-11-22T08:19:40;-2.90;99.90
7461;DHT22;6757;52.258;12.840;2023-11-22T08:22:07;-2.80;99.90
7461;DHT22;6757;52.258;12.840;2023-11-22T08:24:36;-2.80;99.90
7461;DHT22;6757;52.258;12.840;2023-11-22T08:27:03;-2.80;99.90
7461;DHT22;6757;52.258;12.840;2023-11-22T08:29:32;-2.70;99.90
7461;DHT22;6757;52.258;12.840;2023-11-22T08:31:59;-2.60;99.90
7461;DHT22;6757;52.258;12.840;2023-11-22T08:34:29;-2.60;99.90
7461;DHT22;6757;52.258;12.840;2023-11-22T08:36:57;-2.50;99.90
7461;DHT22;6757;52.258;12.840;2023-11-22T08:39:25;-2.50;99.90
7461;DHT22;6757;52.258;12.840;2023-11-22T08:41:54;-2.40;99.90
7461;DHT22;6757;52.258;12.840;2023-11-22T08:44:21;-2.40;99.90
7461;DHT22;6757;52.258;12.840;2023-11-22T08:46:48;-2.40;99.90
7461;DHT22;6757;52.258;12.840;2023-11-22T08:49:15;-2.30;99.90
7461;DHT22;6757;52.258;12.840;2023-11-22T08:51:42;-2.20;99.90
7461;DHT22;6757;52.258;12.840;2023-11-22T08:54:11;-2.20;99.90
7461;DHT22;6757;52.258;12.840;2023-11-22T08:56:39;-2.30;99.90
7461;DHT22;6757;52.258;12.840;2023-11-22T08:59:09;-2.10;99.90
7461;DHT22;6757;52.258;12.840;2023-11-22T09:01:36;-2.00;99.90
7461;DHT22;6757;52.258;12.840;2023-11-22T09:04:03;-1.90;99.90
7461;DHT22;6757;52.258;12.840;2023-11-22T09:06:32;-1.90;99.90
7461;DHT22;6757;52.258;12.840;2023-11-22T09:09:00;-1.80;99.90
7461;DHT22;6757;52.258;12.840;2023-11-22T09:11:27;-1.80;99.90
7461;DHT22;6757;52.258;12.840;2023-11-22T09:13:56;-1.70;99.90
7461;DHT22;6757;52.258;12.840;2023-11-22T09:16:24;-1.70;99.90
7461;DHT22;6757;52.258;12.840;2023-11-22T09:18:52;-1.60;99.90
7461;DHT22;6757;52.258;12.840;2023-11-22T09:21:23;-1.60;99.90
7461;DHT22;6757;52.258;12.840;2023-11-22T09:23:50;-1.50;99.90
7461;DHT22;6757;52.258;12.840;2023-11-22T09:26:19;-1.40;99.90
7461;DHT22;6757;52.258;12.840;2023-11-22T09:28:46;-1.40;99.90
7461;DHT22;6757;52.258;12.840;2023-11-22T09:31:13;-1.30;99.90
7461;DHT22;6757;52.258;12.840;2023-11-22T09:33:47;-1.20;99.90
7461;DHT22;6757;52.258;12.840;2023-11-22T09:36:15;-1.20;99.90
7461;DHT22;6757;52.258;12.840;2023-11-22T09:38:43;-1.10;99.90
7461;DHT22;6757;52.258;12.840;2023-11-22T09:41:10;-0.90;99.90
7461;DHT22;6757;52.258;12.840;2023-11-22T09:43:39;-1.00;99.90
7461;DHT22;6757;52.258;12.840;2023-11-22T09:46:06;-1.00;99.90
7461;DHT22;6757;52.258;12.840;2023-11-22T09:48:37;-0.90;99.90
7461;DHT22;6757;52.258;12.840;2023-11-22T09:51:15;-0.80;99.90
7461;DHT22;6757;52.258;12.840;2023-11-22T09:53:52;-0.70;99.90
7461;DHT22;6757;52.258;12.840;2023-11-22T09:56:24;-0.70;99.90
7461;DHT22;6757;52.258;12.840;2023-11-22T09:58:52;-0.60;99.90
7461;DHT22;6757;52.258;12.840;2023-11-22T10:01:21;-0.60;99.90
7461;DHT22;6757;52.258;12.840;2023-11-22T10:03:49;-0.40;99.90
7461;DHT22;6757;52.258;12.840;2023-11-22T10:06:17;-0.30;99.90
7461;DHT22;6757;52.258;12.840;2023-11-22T10:08:44;-0.20;99.90
7461;DHT22;6757;52.258;12.840;2023-11-22T10:11:15;0.00;99.90
7461;DHT22;6757;52.258;12.840;2023-11-22T10:13:44;0.00;99.90
7461;DHT22;6757;52.258;12.840;2023-11-22T10:16:14;0.20;99.90
7461;DHT22;6757;52.258;12.840;2023-11-22T10:18:44;0.30;99.90
7461;DHT22;6757;52.258;12.840;2023-11-22T10:21:21;0.40;99.90
7461;DHT22;6757;52.258;12.840;2023-11-22T10:23:50;0.50;99.90
7461;DHT22;6757;52.258;12.840;2023-11-22T10:26:18;0.60;99.90
7461;DHT22;6757;52.258;12.840;2023-11-22T10:28:46;0.70;99.90
7461;DHT22;6757;52.258;12.840;2023-11-22T10:31:17;0.70;99.90
7461;DHT22;6757;52.258;12.840;2023-11-22T10:33:44;0.80;99.90
7461;DHT22;6757;52.258;12.840;2023-11-22T10:36:11;0.70;99.90
7461;DHT22;6757;52.258;12.840;2023-11-22T10:38:40;1.50;99.90
7461;DHT22;6757;52.258;12.840;2023-11-22T10:41:08;0.90;99.90
7461;DHT22;6757;52.258;12.840;2023-11-22T10:43:35;1.10;99.90
7461;DHT22;6757;52.258;12.840;2023-11-22T10:46:04;1.10;99.90
7461;DHT22;6757;52.258;12.840;2023-11-22T10:48:32;1.30;99.90
7461;DHT22;6757;52.258;12.840;2023-11-22T10:51:01;1.40;99.90
7461;DHT22;6757;52.258;12.840;2023-11-22T10:53:32;1.50;99.90
7461;DHT22;6757;52.258;12.840;2023-11-22T10:56:06;1.70;99.90
7461;DHT22;6757;52.258;12.840;2023-11-22T10:58:42;1.80;99.90
7461;DHT22;6757;52.258;12.840;2023-11-22T11:01:15;1.90;99.90
7461;DHT22;6757;52.258;12.840;2023-11-22T11:03:48;2.00;99.90
7461;DHT22;6757;52.258;12.840;2023-11-22T11:06:23;2.00;99.90
7461;DHT22;6757;52.258;12.840;2023-11-22T11:08:55;2.20;99.90
7461;DHT22;6757;52.258;12.840;2023-11-22T11:11:27;2.30;99.90
7461;DHT22;6757;52.258;12.840;2023-11-22T11:13:56;2.40;99.90
7461;DHT22;6757;52.258;12.840;2023-11-22T11:16:25;2.50;99.90
7461;DHT22;6757;52.258;12.840;2023-11-22T11:18:52;2.60;99.90
7461;DHT22;6757;52.258;12.840;2023-11-22T11:21:20;2.70;99.90
7461;DHT22;6757;52.258;12.840;2023-11-22T11:23:51;2.90;99.90
7461;DHT22;6757;52.258;12.840;2023-11-22T11:26:21;3.10;99.90
7461;DHT22;6757;52.258;12.840;2023-11-22T11:28:52;3.20;99.90
7461;DHT22;6757;52.258;12.840;2023-11-22T11:31:22;3.40;99.90
7461;DHT22;6757;52.258;12.840;2023-11-22T11:33:55;3.50;99.90
7461;DHT22;6757;52.258;12.840;2023-11-22T11:36:24;3.50;99.90
7461;DHT22;6757;52.258;12.840;2023-11-22T11:38:52;3.60;99.90
7461;DHT22;6757;52.258;12.840;2023-11-22T11:41:25;3.50;99.90
7461;DHT22;6757;52.258;12.840;2023-11-22T11:43:55;3.60;99.90
7461;DHT22;6757;52.258;12.840;2023-11-22T11:46:23;4.30;99.90
7461;DHT22;6757;52.258;12.840;2023-11-22T11:48:52;3.70;99.90
7461;DHT22;6757;52.258;12.840;2023-11-22T11:51:22;3.80;99.90
7461;DHT22;6757;52.258;12.840;2023-11-22T11:53:49;3.90;99.90
7461;DHT22;6757;52.258;12.840;2023-11-22T11:56:16;3.90;99.90
7461;DHT22;6757;52.258;12.840;2023-11-22T11:58:45;4.00;99.90
7461;DHT22;6757;52.258;12.840;2023-11-22T12:01:17;4.00;99.90
7461;DHT22;6757;52.258;12.840;2023-11-22T12:03:47;4.00;99.90
7461;DHT22;6757;52.258;12.840;2023-11-22T12:06:14;4.00;99.90
7461;DHT22;6757;52.258;12.840;2023-11-22T12:08:42;4.20;99.90
7461;DHT22;6757;52.258;12.840;2023-11-22T12:11:09;4.30;99.90
7461;DHT22;6757;52.258;12.840;2023-11-22T12:13:37;4.40;99.90
7461;DHT22;6757;52.258;12.840;2023-11-22T12:16:09;4.60;99.90
7461;DHT22;6757;52.258;12.840;2023-11-22T12:18:42;4.70;99.90
7461;DHT22;6757;52.258;12.840;2023-11-22T12:21:11;4.80;99.90
7461;DHT22;6757;52.258;12.840;2023-11-22T12:23:40;5.00;99.90
7461;DHT22;6757;52.258;12.840;2023-11-22T12:26:11;5.00;99.90
7461;DHT22;6757;52.258;12.840;2023-11-22T12:28:39;5.10;99.90
7461;DHT22;6757;52.258;12.840;2023-11-22T12:31:07;5.10;99.90
7461;DHT22;6757;52.258;12.840;2023-11-22T12:33:35;5.20;99.90
7461;DHT22;6757;52.258;12.840;2023-11-22T12:36:05;5.30;99.90
7461;DHT22;6757;52.258;12.840;2023-11-22T12:38:34;5.40;99.90
7461;DHT22;6757;52.258;12.840;2023-11-22T12:41:02;5.60;99.90
7461;DHT22;6757;52.258;12.840;2023-11-22T12:43:32;5.70;99.90
7461;DHT22;6757;52.258;12.840;2023-11-22T12:45:59;5.70;99.90
7461;DHT22;6757;52.258;12.840;2023-11-22T12:48:27;5.70;99.90
7461;DHT22;6757;52.258;12.840;2023-11-22T12:50:55;5.70;99.90
7461;DHT22;6757;52.258;12.840;2023-11-22T12:53:26;5.60;99.90
7461;DHT22;6757;52.258;12.840;2023-11-22T12:55:56;5.60;99.90
7461;DHT22;6757;52.258;12.840;2023-11-22T12:58:24;5.60;99.90
7461;DHT22;6757;52.258;12.840;2023-11-22T13:00:54;5.50;99.90
7461;DHT22;6757;52.258;12.840;2023-11-22T13:03:27;5.40;99.90
7461;DHT22;6757;52.258;12.840;2023-11-22T13:05:55;5.30;99.90
7461;DHT22;6757;52.258;12.840;2023-11-22T13:08:24;5.10;99.90
7461;DHT22;6757;52.258;12.840;2023-11-22T13:10:55;4.90;99.90
7461;DHT22;6757;52.258;12.840;2023-11-22T13:13:23;4.70;99.90
7461;DHT22;6757;52.258;12.840;2023-11-22T13:15:50;4.50;99.90
7461;DHT22;6757;52.258;12.840;2023-11-22T13:18:19;4.30;99.90
7461;DHT22;6757;52.258;12.840;2023-11-22T13:20:46;4.00;99.90
7461;DHT22;6757;52.258;12.840;2023-11-22T13:23:15;3.80;99.90
7461;DHT22;6757;52.258;12.840;2023-11-22T13:25:44;3.50;99.90
7461;DHT22;6757;52.258;12.840;2023-11-22T13:28:12;3.50;99.90
7461;DHT22;6757;52.258;12.840;2023-11-22T13:30:40;3.30;99.90
7461;DHT22;6757;52.258;12.840;2023-11-22T13:33:07;3.10;99.90
7461;DHT22;6757;52.258;12.840;2023-11-22T13:35:34;3.00;99.90
7461;DHT22;6757;52.258;12.840;2023-11-22T13:38:03;2.90;99.90
7461;DHT22;6757;52.258;12.840;2023-11-22T13:40:36;2.70;99.90
7461;DHT22;6757;52.258;12.840;2023-11-22T13:43:07;2.60;99.90
7461;DHT22;6757;52.258;12.840;2023-11-22T13:45:35;2.50;99.90
7461;DHT22;6757;52.258;12.840;2023-11-22T13:48:05;2.50;99.90
7461;DHT22;6757;52.258;12.840;2023-11-22T13:50:34;2.40;99.90
7461;DHT22;6757;52.258;12.840;2023-11-22T13:53:02;2.30;99.90
7461;DHT22;6757;52.258;12.840;2023-11-22T13:55:30;2.10;99.90
7461;DHT22;6757;52.258;12.840;2023-11-22T13:57:59;2.10;99.90
7461;DHT22;6757;52.258;12.840;2023-11-22T14:00:29;2.00;99.90
7461;DHT22;6757;52.258;12.840;2023-11-22T14:03:00;1.90;99.90
7461;DHT22;6757;52.258;12.840;2023-11-22T14:05:32;1.80;99.90
7461;DHT22;6757;52.258;12.840;2023-11-22T14:08:02;1.80;99.90
7461;DHT22;6757;52.258;12.840;2023-11-22T14:10:30;1.70;99.90
7461;DHT22;6757;52.258;12.840;2023-11-22T14:12:58;1.70;99.90
7461;DHT22;6757;52.258;12.840;2023-11-22T14:15:31;1.60;99.90
7461;DHT22;6757;52.258;12.840;2023-11-22T14:17:58;1.60;99.90
7461;DHT22;6757;52.258;12.840;2023-11-22T14:20:26;1.60;99.90
7461;DHT22;6757;52.258;12.840;2023-11-22T14:22:55;1.60;99.90
7461;DHT22;6757;52.258;12.840;2023-11-22T14:25:22;1.60;99.90
7461;DHT22;6757;52.258;12.840;2023-11-22T14:27:49;1.50;99.90
7461;DHT22;6757;52.258;12.840;2023-11-22T14:30:20;1.30;99.90
7461;DHT22;6757;52.258;12.840;2023-11-22T14:32:48;1.40;99.90
7461;DHT22;6757;52.258;12.840;2023-11-22T14:35:16;1.40;99.90
7461;DHT22;6757;52.258;12.840;2023-11-22T14:37:44;1.50;99.90
7461;DHT22;6757;52.258;12.840;2023-11-22T14:40:11;1.40;99.90
7461;DHT22;6757;52.258;12.840;2023-11-22T14:42:40;1.30;99.90
7461;DHT22;6757;52.258;12.840;2023-11-22T14:45:09;1.20;99.90
7461;DHT22;6757;52.258;12.840;2023-11-22T14:47:36;1.20;99.90
7461;DHT22;6757;52.258;12.840;2023-11-22T14:50:07;1.20;99.90
7461;DHT22;6757;52.258;12.840;2023-11-22T14:52:39;1.10;99.90
7461;DHT22;6757;52.258;12.840;2023-11-22T14:55:07;1.00;99.90
7461;DHT22;6757;52.258;12.840;2023-11-22T14:57:36;1.00;99.90
7461;DHT22;6757;52.258;12.840;2023-11-22T15:00:06;0.90;99.90
7461;DHT22;6757;52.258;12.840;2023-11-22T15:02:39;0.80;99.90
7461;DHT22;6757;52.258;12.840;2023-11-22T15:05:10;0.80;99.90
7461;DHT22;6757;52.258;12.840;2023-11-22T15:07:38;0.70;99.90
7461;DHT22;6757;52.258;12.840;2023-11-22T15:10:07;1.00;99.90
7461;DHT22;6757;52.258;12.840;2023-11-22T15:12:36;0.60;99.90
7461;DHT22;6757;52.258;12.840;2023-11-22T15:15:06;0.50;99.90
7461;DHT22;6757;52.258;12.840;2023-11-22T15:17:36;0.50;99.90
7461;DHT22;6757;52.258;12.840;2023-11-22T15:20:04;0.60;99.90
7461;DHT22;6757;52.258;12.840;2023-11-22T15:22:36;0.70;99.90
7461;DHT22;6757;52.258;12.840;2023-11-22T15:25:04;0.70;99.90
7461;DHT22;6757;52.258;12.840;2023-11-22T15:27:35;0.80;99.90
7461;DHT22;6757;52.258;12.840;2023-11-22T15:30:03;0.90;99.90
7461;DHT22;6757;52.258;12.840;2023-11-22T15:32:32;0.90;99.90
7461;DHT22;6757;52.258;12.840;2023-11-22T15:35:00;0.90;99.90
7461;DHT22;6757;52.258;12.840;2023-11-22T15:37:30;0.80;99.90
7461;DHT22;6757;52.258;12.840;2023-11-22T15:39:58;0.80;99.90
7461;DHT22;6757;52.258;12.840;2023-11-22T15:42:25;0.80;99.90
7461;DHT22;6757;52.258;12.840;2023-11-22T15:44:53;0.70;99.90
7461;DHT22;6757;52.258;12.840;2023-11-22T15:47:20;0.70;99.90
7461;DHT22;6757;52.258;12.840;2023-11-22T15:49:48;0.60;99.90
7461;DHT22;6757;52.258;12.840;2023-11-22T15:52:16;0.50;99.90
7461;DHT22;6757;52.258;12.840;2023-11-22T15:54:43;0.50;99.90
7461;DHT22;6757;52.258;12.840;2023-11-22T15:57:11;0.40;99.90
7461;DHT22;6757;52.258;12.840;2023-11-22T15:59:38;0.40;99.90